Time;durP1;ratioP1;P1;durP2;ratioP2;P2;SDS_P1;SDS_P2;PMS_P1;PMS_P2;Temp;Humidity;BMP_temperature;BMP_pressure;BME280_temperature;BME280_humidity;BME280_pressure;Samples;Min_cycle;Max_cycle;Signal;HPM_P1;HPM_P2
2021/07/26 00:02:19;;;;;;;2.85;2.65;;;26.90;47.80;;;-147.20;100.00;58430.41;5113789;28;20047;-53
2021/07/26 00:04:45;;;;;;;2.85;2.65;;;26.90;47.80;;;-147.20;100.00;58430.41;5113981;28;20526;-52
2021/07/26 00:07:11;;;;;;;2.80;2.60;;;26.90;47.80;;;-147.20;100.00;58430.41;5113353;28;20055;-54
2021/07/26 00:09:37;;;;;;;2.92;2.53;;;26.90;47.80;;;-147.20;100.00;58430.41;5112647;28;20420;-50
2021/07/26 00:12:05;;;;;;;2.67;2.47;;;26.90;47.90;;;-147.20;100.00;58430.41;5113214;28;20052;-52
2021/07/26 00:14:32;;;;;;;2.70;2.50;;;26.80;47.80;;;-147.20;100.00;58430.41;5113194;28;20087;-55
2021/07/26 00:16:57;;;;;;;2.65;2.45;;;26.90;47.90;;;-147.20;100.00;58430.41;5113607;28;20065;-52
2021/07/26 00:19:24;;;;;;;2.70;2.50;;;26.80;47.90;;;-147.20;100.00;58430.41;5113203;28;20055;-51
2021/07/26 00:21:50;;;;;;;2.95;2.75;;;26.80;47.90;;;-147.20;100.00;58430.41;5113199;28;20043;-53
2021/07/26 00:24:17;;;;;;;2.50;2.30;;;26.80;47.90;;;-147.20;100.00;58430.41;5113220;28;20526;-52
2021/07/26 00:26:43;;;;;;;2.42;2.22;;;26.80;48.00;;;-147.20;100.00;58430.41;5113094;28;20039;-54
2021/07/26 00:29:09;;;;;;;2.75;2.55;;;26.80;48.00;;;-147.20;100.00;58430.41;5113101;28;20070;-53
2021/07/26 00:31:34;;;;;;;3.05;2.75;;;26.80;48.00;;;-147.20;100.00;58430.41;5113100;28;20044;-49
2021/07/26 00:34:26;;;;;;;2.90;2.30;;;26.80;48.00;;;-147.20;100.00;58430.41;5112993;28;20039;-47
2021/07/26 00:36:57;;;;;;;2.67;2.47;;;26.80;48.00;;;-147.20;100.00;58430.41;5113140;28;20051;-50
2021/07/26 00:39:35;;;;;;;2.47;2.28;;;26.70;48.00;;;-147.20;100.00;58430.41;5111378;28;20040;-51
2021/07/26 00:42:02;;;;;;;3.03;2.78;;;26.70;48.00;;;-147.20;100.00;58430.41;5113175;28;20062;-53
2021/07/26 00:44:31;;;;;;;2.88;2.67;;;26.70;48.00;;;-147.20;100.00;58430.41;5112922;28;20043;-51
2021/07/26 00:46:58;;;;;;;2.97;2.67;;;26.70;48.00;;;-147.20;100.00;58430.41;5113141;28;20043;-52
2021/07/26 00:49:26;;;;;;;2.80;2.60;;;26.70;48.00;;;-147.20;100.00;58430.41;5112804;28;20039;-53
2021/07/26 00:52:01;;;;;;;2.75;2.55;;;26.70;48.10;;;-147.20;100.00;58430.41;5095200;28;20172;-51
2021/07/26 00:54:32;;;;;;;3.13;2.83;;;26.70;48.10;;;-147.20;100.00;58430.41;5113062;28;20043;-51
2021/07/26 00:57:00;;;;;;;2.58;2.38;;;26.70;48.20;;;-147.20;100.00;58430.41;5112644;28;20074;-54
2021/07/26 00:59:27;;;;;;;2.50;2.30;;;26.70;48.20;;;-147.20;100.00;58430.41;5110891;28;20059;-54
2021/07/26 01:01:53;;;;;;;2.60;2.40;;;26.70;48.20;;;-147.20;100.00;58430.41;5112715;28;20070;-46
2021/07/26 01:04:19;;;;;;;2.90;2.65;;;26.70;48.20;;;-147.20;100.00;58430.41;5112672;28;20043;-53
2021/07/26 01:06:45;;;;;;;2.67;2.47;;;26.60;48.20;;;-147.20;100.00;58430.41;5078282;28;20107;-51
2021/07/26 01:09:11;;;;;;;2.42;2.17;;;26.60;48.20;;;-147.20;100.00;58430.41;5097946;28;20547;-53
2021/07/26 01:11:37;;;;;;;2.60;2.40;;;26.60;48.30;;;-147.20;100.00;58430.41;5097702;28;20132;-47
2021/07/26 01:14:03;;;;;;;2.67;2.47;;;26.60;48.30;;;-147.20;100.00;58430.41;5114820;28;20440;-49
2021/07/26 01:16:30;;;;;;;2.50;2.30;;;26.60;48.40;;;-147.20;100.00;58430.41;5116483;28;20047;-51
2021/07/26 01:18:56;;;;;;;2.70;2.50;;;26.60;48.30;;;-147.20;100.00;58430.41;5116017;28;20048;-48
2021/07/26 01:21:22;;;;;;;2.70;2.50;;;26.60;48.30;;;-147.20;100.00;58430.41;5098331;28;20040;-49
2021/07/26 01:23:50;;;;;;;2.70;2.50;;;26.50;48.30;;;-147.20;100.00;58430.41;5115982;28;20040;-52
2021/07/26 01:26:22;;;;;;;3.05;2.85;;;26.60;48.40;;;-147.20;100.00;58430.41;5116014;28;20051;-49
2021/07/26 01:28:52;;;;;;;2.75;2.53;;;26.60;48.40;;;-147.20;100.00;58430.41;5115948;28;20047;-47
2021/07/26 01:31:19;;;;;;;2.63;2.42;;;26.50;48.40;;;-147.20;100.00;58430.41;5115777;28;20062;-49
2021/07/26 01:33:49;;;;;;;2.50;2.30;;;26.50;48.50;;;-147.20;100.00;58430.41;5115888;28;20540;-51
2021/07/26 01:36:16;;;;;;;2.50;2.30;;;26.50;48.50;;;-147.20;100.00;58430.41;5116097;28;20077;-50
2021/07/26 01:38:45;;;;;;;2.40;2.20;;;26.50;48.50;;;-147.20;100.00;58430.41;5115938;28;20078;-49
2021/07/26 01:41:12;;;;;;;2.58;2.38;;;26.50;48.60;;;-147.20;100.00;58430.41;5115762;28;20055;-48
2021/07/26 01:44:02;;;;;;;2.65;2.45;;;26.50;48.50;;;-147.20;100.00;58430.41;5096222;28;20044;-52
2021/07/26 01:46:49;;;;;;;2.60;2.30;;;26.50;48.50;;;-147.20;100.00;58430.41;5116062;28;20143;-49
2021/07/26 01:49:29;;;;;;;2.50;2.30;;;26.40;48.50;;;-147.20;100.00;58430.41;5115820;28;20040;-49
2021/07/26 01:51:55;;;;;;;2.90;2.70;;;26.50;48.60;;;-147.20;100.00;58430.41;5115841;28;20043;-49
2021/07/26 01:54:21;;;;;;;2.90;2.70;;;26.50;48.60;;;-147.20;100.00;58430.41;5097536;28;20449;-49
2021/07/26 01:56:48;;;;;;;2.55;2.35;;;26.40;48.60;;;-147.20;100.00;58430.41;5115452;28;20126;-51
2021/07/26 01:59:14;;;;;;;2.83;2.50;;;26.50;48.70;;;-147.20;100.00;58430.41;5115527;28;20181;-54
2021/07/26 02:01:39;;;;;;;2.88;2.67;;;26.40;48.70;;;-147.20;100.00;58430.41;5115436;28;20135;-52
2021/07/26 02:04:05;;;;;;;2.95;2.75;;;26.40;48.70;;;-147.20;100.00;58430.41;5115756;28;20050;-49
2021/07/26 02:06:31;;;;;;;2.80;2.50;;;26.40;48.70;;;-147.20;100.00;58430.41;5115698;28;20368;-52
2021/07/26 02:08:57;;;;;;;2.35;2.15;;;26.40;48.70;;;-147.20;100.00;58430.41;5115098;28;20461;-54
2021/07/26 02:11:24;;;;;;;2.70;2.40;;;26.40;48.80;;;-147.20;100.00;58430.41;5115346;28;20474;-49
2021/07/26 02:13:53;;;;;;;2.60;2.40;;;26.40;48.80;;;-147.20;100.00;58430.41;5115891;28;20467;-52
2021/07/26 02:16:23;;;;;;;2.83;2.58;;;26.40;48.80;;;-147.20;100.00;58430.41;5115004;28;20051;-51
2021/07/26 02:18:50;;;;;;;2.83;2.63;;;26.40;48.80;;;-147.20;100.00;58430.41;5113837;28;20043;-54
2021/07/26 02:21:19;;;;;;;2.50;2.30;;;26.30;48.80;;;-147.20;100.00;58430.41;5115373;28;20402;-53
2021/07/26 02:23:45;;;;;;;3.08;2.70;;;26.30;48.80;;;-147.20;100.00;58430.41;5114949;28;20043;-53
2021/07/26 02:26:11;;;;;;;2.95;2.75;;;26.30;48.90;;;-147.20;100.00;58430.41;5115160;28;20075;-50
2021/07/26 02:28:36;;;;;;;2.63;2.42;;;26.30;48.90;;;-147.20;100.00;58430.41;5115093;28;20055;-54
2021/07/26 02:31:02;;;;;;;2.55;2.30;;;26.30;48.90;;;-147.20;100.00;58430.41;5096314;28;20523;-52
2021/07/26 02:33:28;;;;;;;2.60;2.40;;;26.30;48.90;;;-147.20;100.00;58430.41;5114482;28;20377;-49
2021/07/26 02:35:53;;;;;;;2.30;2.13;;;26.30;48.90;;;-147.20;100.00;58430.41;5114818;28;20376;-53
2021/07/26 02:38:19;;;;;;;2.85;2.55;;;26.30;48.90;;;-147.20;100.00;58430.41;5114867;28;20043;-51
2021/07/26 02:40:45;;;;;;;2.42;2.22;;;26.30;48.90;;;-147.20;100.00;58430.41;5114802;28;20058;-52
2021/07/26 02:43:11;;;;;;;2.90;2.70;;;26.30;48.90;;;-147.20;100.00;58430.41;5114358;28;20046;-51
2021/07/26 02:45:36;;;;;;;2.58;2.38;;;26.30;49.00;;;-147.20;100.00;58430.41;5115049;28;20046;-50
2021/07/26 02:48:02;;;;;;;3.10;2.90;;;26.20;48.90;;;-147.20;100.00;58430.41;5115208;28;20048;-51
2021/07/26 02:50:28;;;;;;;2.92;2.72;;;26.20;48.90;;;-147.20;100.00;58430.41;5113699;28;20134;-54
2021/07/26 02:52:54;;;;;;;3.25;2.95;;;26.20;49.00;;;-147.20;100.00;58430.41;5114667;28;20062;-46
2021/07/26 02:55:20;;;;;;;2.90;2.70;;;26.20;49.00;;;-147.20;100.00;58430.41;5096119;28;20131;-47
2021/07/26 02:57:46;;;;;;;2.80;2.60;;;26.20;49.00;;;-147.20;100.00;58430.41;5114579;28;20044;-49
2021/07/26 03:00:13;;;;;;;3.03;2.78;;;26.20;49.00;;;-147.20;100.00;58430.41;5114844;28;20391;-49
2021/07/26 03:02:38;;;;;;;2.42;2.22;;;26.20;49.10;;;-147.20;100.00;58430.41;5114244;28;20055;-47
2021/07/26 03:05:05;;;;;;;2.78;2.58;;;26.20;49.10;;;-147.20;100.00;58430.41;5114524;28;20044;-50
2021/07/26 03:07:32;;;;;;;3.05;2.75;;;26.20;49.60;;;-147.20;100.00;58430.41;5114436;28;20070;-53
2021/07/26 03:09:58;;;;;;;2.90;2.70;;;26.20;49.10;;;-147.20;100.00;58430.41;5114315;28;20063;-52
2021/07/26 03:12:24;;;;;;;2.83;2.63;;;26.20;49.10;;;-147.20;100.00;58430.41;5114237;28;20051;-49
2021/07/26 03:14:50;;;;;;;2.50;2.30;;;26.20;49.10;;;-147.20;100.00;58430.41;5114235;28;20096;-51
2021/07/26 03:17:15;;;;;;;2.80;2.60;;;26.20;49.10;;;-147.20;100.00;58430.41;5114771;28;20055;-52
2021/07/26 03:19:41;;;;;;;2.70;2.50;;;26.20;49.20;;;-147.20;100.00;58430.41;5114176;28;20138;-51
2021/07/26 03:23:02;;;;;;;2.20;2.10;;;26.10;49.10;;;-147.20;100.00;58430.41;5114007;28;20043;-54
2021/07/26 03:25:31;;;;;;;2.42;2.22;;;26.10;49.20;;;-147.20;100.00;58430.41;5114051;28;20060;-50
2021/07/26 03:27:59;;;;;;;2.72;2.53;;;26.10;49.20;;;-147.20;100.00;58430.41;5114206;28;20036;-49
2021/07/26 03:30:25;;;;;;;2.97;2.78;;;26.10;49.20;;;-147.20;100.00;58430.41;5114060;28;20073;-53
2021/07/26 03:32:51;;;;;;;2.80;2.60;;;26.10;49.20;;;-147.20;100.00;58430.41;5112660;28;20060;-49
2021/07/26 03:35:18;;;;;;;2.63;2.42;;;26.10;49.30;;;-147.20;100.00;58430.41;5114151;28;20047;-52
2021/07/26 03:37:45;;;;;;;2.63;2.42;;;26.10;49.30;;;-147.20;100.00;58430.41;5113741;28;20075;-49
2021/07/26 03:40:11;;;;;;;2.83;2.60;;;26.10;49.30;;;-147.20;100.00;58430.41;5113741;28;20048;-51
2021/07/26 03:42:40;;;;;;;2.60;2.40;;;26.10;49.30;;;-147.20;100.00;58430.41;5113767;28;20546;-52
2021/07/26 03:45:09;;;;;;;2.58;2.38;;;26.10;49.40;;;-147.20;100.00;58430.41;5113788;28;20047;-50
2021/07/26 03:47:35;;;;;;;3.00;2.70;;;26.10;49.30;;;-147.20;100.00;58430.41;5113859;28;20044;-51
2021/07/26 03:50:01;;;;;;;3.28;2.97;;;26.10;49.30;;;-147.20;100.00;58430.41;5113746;28;20048;-48
2021/07/26 03:52:27;;;;;;;2.88;2.67;;;26.10;49.30;;;-147.20;100.00;58430.41;5113735;28;20527;-50
2021/07/26 03:54:56;;;;;;;2.40;2.20;;;26.10;49.30;;;-147.20;100.00;58430.41;5113626;28;20086;-53
2021/07/26 03:57:23;;;;;;;2.70;2.50;;;26.10;49.20;;;-147.20;100.00;58430.41;5113625;28;20035;-51
2021/07/26 03:59:49;;;;;;;2.70;2.50;;;26.20;49.30;;;-147.20;100.00;58430.41;5113604;28;20121;-48
2021/07/26 04:02:14;;;;;;;2.63;2.42;;;26.20;49.20;;;-147.20;100.00;58430.41;5113576;28;20434;-48
2021/07/26 04:04:41;;;;;;;2.45;2.25;;;26.30;49.20;;;-147.20;100.00;58430.41;5113620;28;20066;-52
2021/07/26 04:07:13;;;;;;;2.97;2.72;;;26.30;49.10;;;-147.20;100.00;58430.41;5113709;28;20127;-48
2021/07/26 04:09:45;;;;;;;2.63;2.42;;;26.30;49.00;;;-147.20;100.00;58430.41;5113493;28;20174;-48
2021/07/26 04:12:13;;;;;;;2.70;2.50;;;26.30;49.00;;;-147.20;100.00;58430.41;5113749;28;20043;-47
2021/07/26 04:14:41;;;;;;;2.55;2.35;;;26.30;48.90;;;-147.20;100.00;58430.41;5113491;28;20462;-50
2021/07/26 04:17:07;;;;;;;2.58;2.38;;;26.40;48.80;;;-147.20;100.00;58430.41;5113197;28;20051;-46
2021/07/26 04:19:33;;;;;;;2.92;2.63;;;26.40;48.70;;;-147.20;100.00;58430.41;5113262;28;20059;-49
2021/07/26 04:21:59;;;;;;;2.70;2.50;;;26.40;48.70;;;-147.20;100.00;58430.41;5113219;28;20043;-50
2021/07/26 04:24:26;;;;;;;2.72;2.47;;;26.40;48.70;;;-147.20;100.00;58430.41;5113151;28;20048;-48
2021/07/26 04:26:52;;;;;;;2.85;2.65;;;26.50;48.70;;;-147.20;100.00;58430.41;5111781;28;20058;-50
2021/07/26 04:29:19;;;;;;;3.13;2.83;;;26.40;48.60;;;-147.20;100.00;58430.41;5113155;28;20043;-49
2021/07/26 04:31:47;;;;;;;2.72;2.53;;;26.50;48.60;;;-147.20;100.00;58430.41;5113022;28;20055;-48
2021/07/26 04:34:12;;;;;;;2.58;2.38;;;26.50;48.50;;;-147.20;100.00;58430.41;5113031;28;20048;-47
2021/07/26 04:36:38;;;;;;;2.45;2.25;;;26.50;48.50;;;-147.20;100.00;58430.41;5113041;28;20075;-46
2021/07/26 04:39:04;;;;;;;3.17;2.88;;;26.50;48.40;;;-147.20;100.00;58430.41;5112867;28;20051;-49
2021/07/26 04:41:34;;;;;;;3.10;2.30;;;26.50;48.30;;;-147.20;100.00;58430.41;5116058;28;20043;-48
2021/07/26 04:44:00;;;;;;;3.00;2.75;;;26.60;48.40;;;-147.20;100.00;58430.41;5119842;28;20491;-47
2021/07/26 04:46:27;;;;;;;2.80;2.60;;;26.60;48.40;;;-147.20;100.00;58430.41;5118454;28;20399;-45
2021/07/26 04:48:53;;;;;;;2.78;2.58;;;26.60;48.40;;;-147.20;100.00;58430.41;5119561;28;20400;-48
2021/07/26 04:51:20;;;;;;;3.00;2.75;;;26.70;48.40;;;-147.20;100.00;58430.41;5101347;28;20053;-49
2021/07/26 04:53:46;;;;;;;2.47;2.28;;;26.70;48.20;;;-147.20;100.00;58430.41;5120283;28;20044;-48
2021/07/26 04:56:11;;;;;;;2.90;2.60;;;26.70;48.20;;;-147.20;100.00;58430.41;5119633;28;20059;-48
2021/07/26 04:58:37;;;;;;;2.42;2.22;;;26.70;48.20;;;-147.20;100.00;58430.41;5099869;28;20191;-48
2021/07/26 05:01:03;;;;;;;2.90;2.70;;;26.70;48.20;;;-147.20;100.00;58430.41;5119692;28;20385;-48
2021/07/26 05:03:29;;;;;;;2.70;2.50;;;26.60;48.20;;;-147.20;100.00;58430.41;5119144;28;20051;-52
2021/07/26 05:05:54;;;;;;;2.58;2.38;;;26.60;48.20;;;-147.20;100.00;58430.41;5119543;28;20044;-51
2021/07/26 05:08:20;;;;;;;2.42;2.22;;;26.60;48.20;;;-147.20;100.00;58430.41;5119108;28;20052;-49
2021/07/26 05:10:47;;;;;;;3.00;2.80;;;26.60;48.30;;;-147.20;100.00;58430.41;5119422;28;20036;-48
2021/07/26 05:13:16;;;;;;;2.55;2.35;;;26.60;48.40;;;-147.20;100.00;58430.41;5119533;28;20043;-49
2021/07/26 05:15:41;;;;;;;2.75;2.55;;;26.60;48.40;;;-147.20;100.00;58430.41;5119615;28;20051;-46
2021/07/26 05:18:07;;;;;;;2.75;2.55;;;26.60;48.40;;;-147.20;100.00;58430.41;5119216;28;20399;-51
2021/07/26 05:20:34;;;;;;;2.47;2.28;;;26.50;48.40;;;-147.20;100.00;58430.41;5119881;28;20100;-48
2021/07/26 05:22:59;;;;;;;3.00;2.80;;;26.50;48.40;;;-147.20;100.00;58430.41;5100343;28;20044;-45
2021/07/26 05:25:25;;;;;;;2.83;2.63;;;26.50;48.50;;;-147.20;100.00;58430.41;5119377;28;20150;-48
2021/07/26 05:27:51;;;;;;;2.47;2.28;;;26.50;48.50;;;-147.20;100.00;58430.41;5119207;28;20134;-52
2021/07/26 05:30:17;;;;;;;2.55;2.28;;;26.50;48.50;;;-147.20;100.00;58430.41;5119223;28;20055;-47
2021/07/26 05:32:43;;;;;;;3.03;2.72;;;26.50;48.50;;;-147.20;100.00;58430.41;5119254;28;20127;-49
2021/07/26 05:35:09;;;;;;;2.80;2.60;;;26.50;48.50;;;-147.20;100.00;58430.41;5119120;28;20050;-46
2021/07/26 05:37:35;;;;;;;2.50;2.30;;;26.50;48.50;;;-147.20;100.00;58430.41;5119004;28;20119;-49
2021/07/26 05:40:03;;;;;;;2.78;2.58;;;26.50;48.50;;;-147.20;100.00;58430.41;5119035;28;20044;-50
2021/07/26 05:42:29;;;;;;;2.95;2.72;;;26.50;48.50;;;-147.20;100.00;58430.41;5119533;28;20086;-46
2021/07/26 05:44:56;;;;;;;2.55;2.35;;;26.50;48.50;;;-147.20;100.00;58430.41;5118966;28;20047;-48
2021/07/26 05:47:22;;;;;;;2.90;2.70;;;26.50;48.50;;;-147.20;100.00;58430.41;5118811;28;20495;-46
2021/07/26 05:49:47;;;;;;;3.25;2.95;;;26.50;48.50;;;-147.20;100.00;58430.41;5118797;28;20051;-49
2021/07/26 05:52:13;;;;;;;3.00;2.80;;;26.50;48.50;;;-147.20;100.00;58430.41;5118168;28;20487;-45
2021/07/26 05:54:39;;;;;;;2.72;2.47;;;26.60;48.50;;;-147.20;100.00;58430.41;5115500;28;20043;-49
2021/07/26 05:57:10;;;;;;;2.67;2.47;;;26.50;48.50;;;-147.20;100.00;58430.41;5115676;28;20086;-52
2021/07/26 05:59:36;;;;;;;2.60;2.40;;;26.60;48.50;;;-147.20;100.00;58430.41;5115531;28;20054;-48
2021/07/26 06:02:03;;;;;;;2.80;2.60;;;26.60;48.50;;;-147.20;100.00;58430.41;5097159;28;20039;-51
2021/07/26 06:04:28;;;;;;;2.83;2.63;;;26.60;48.50;;;-147.20;100.00;58430.41;5115218;28;20047;-49
2021/07/26 06:06:57;;;;;;;3.05;2.85;;;26.60;48.50;;;-147.20;100.00;58430.41;5096961;28;20101;-51
2021/07/26 06:09:23;;;;;;;2.90;2.70;;;26.60;48.50;;;-147.20;100.00;58430.41;5115300;28;20039;-52
2021/07/26 06:11:51;;;;;;;2.70;2.50;;;26.60;48.40;;;-147.20;100.00;58430.41;5115156;28;20094;-50
2021/07/26 06:14:18;;;;;;;3.10;2.78;;;26.60;48.40;;;-147.20;100.00;58430.41;5114923;28;20051;-54
2021/07/26 06:16:52;;;;;;;2.63;2.42;;;26.60;48.40;;;-147.20;100.00;58430.41;5114912;28;20044;-50
2021/07/26 06:19:20;;;;;;;2.85;2.63;;;26.60;48.40;;;-147.20;100.00;58430.41;5115008;28;20051;-49
2021/07/26 06:21:52;;;;;;;2.80;2.60;;;26.60;48.30;;;-147.20;100.00;58430.41;5112716;28;20093;-51
2021/07/26 06:24:20;;;;;;;2.78;2.58;;;26.70;48.30;;;-147.20;100.00;58430.41;5114793;28;20083;-52
2021/07/26 06:26:46;;;;;;;3.75;2.70;;;26.70;48.30;;;-147.20;100.00;58430.41;5115155;28;20063;-47
2021/07/26 06:29:12;;;;;;;2.80;2.60;;;26.80;48.20;;;-147.20;100.00;58430.41;5114743;28;20102;-50
2021/07/26 06:31:40;;;;;;;2.80;2.60;;;26.90;48.30;;;-147.20;100.00;58430.41;5115172;28;20044;-45
2021/07/26 06:34:06;;;;;;;4.05;2.63;;;26.90;48.10;;;-147.20;100.00;58430.41;5114658;28;20055;-48
2021/07/26 06:36:32;;;;;;;2.47;2.28;;;26.90;47.90;;;-147.20;100.00;58430.41;5115197;28;20139;-47
2021/07/26 06:38:58;;;;;;;2.53;2.33;;;27.10;47.90;;;-147.20;100.00;58430.41;5096298;28;20056;-48
2021/07/26 06:41:24;;;;;;;3.13;2.92;;;27.20;47.70;;;-147.20;100.00;58430.41;5114928;28;20052;-47
2021/07/26 06:43:52;;;;;;;2.63;2.42;;;27.30;47.50;;;-147.20;100.00;58430.41;5114532;28;20509;-46
2021/07/26 06:46:22;;;;;;;2.30;2.10;;;27.30;47.20;;;-147.20;100.00;58430.41;5115123;28;20048;-47
2021/07/26 06:48:49;;;;;;;3.55;2.60;;;27.50;47.10;;;-147.20;100.00;58430.41;5114479;28;20047;-48
2021/07/26 06:51:15;;;;;;;2.33;2.13;;;27.60;46.90;;;-147.20;100.00;58430.41;5096275;28;20077;-48
2021/07/26 06:53:41;;;;;;;2.75;2.55;;;27.60;46.80;;;-147.20;100.00;58430.41;5112334;28;20052;-49
2021/07/26 06:56:09;;;;;;;2.58;2.38;;;27.70;46.70;;;-147.20;100.00;58430.41;5114567;28;20043;-49
2021/07/26 06:58:37;;;;;;;2.40;2.20;;;27.70;46.70;;;-147.20;100.00;58430.41;5114019;28;20093;-47
2021/07/26 07:01:14;;;;;;;2.80;2.60;;;27.60;46.60;;;-147.20;100.00;58430.41;5114663;28;20040;-49
2021/07/26 07:03:45;;;;;;;2.65;2.45;;;27.60;46.70;;;-147.20;100.00;58430.41;5113644;28;20047;-52
2021/07/26 07:06:14;;;;;;;2.50;2.30;;;27.60;46.70;;;-147.20;100.00;58430.41;5114678;28;20052;-49
2021/07/26 07:08:40;;;;;;;2.50;2.30;;;27.60;46.70;;;-147.20;100.00;58430.41;5114287;28;20050;-48
2021/07/26 07:11:15;;;;;;;2.40;2.20;;;27.60;46.80;;;-147.20;100.00;58430.41;5114193;28;20052;-47
2021/07/26 07:13:48;;;;;;;2.30;2.10;;;27.60;46.70;;;-147.20;100.00;58430.41;5114086;28;20086;-52
2021/07/26 07:16:25;;;;;;;2.60;2.40;;;27.60;46.70;;;-147.20;100.00;58430.41;5113783;28;20048;-50
2021/07/26 07:18:55;;;;;;;2.50;2.30;;;27.60;47.20;;;-147.20;100.00;58430.41;5114154;28;20047;-52
2021/07/26 07:21:29;;;;;;;2.28;2.15;;;27.70;46.60;;;-147.20;100.00;58430.41;5114442;28;20047;-53
2021/07/26 07:24:01;;;;;;;2.40;2.20;;;27.80;46.50;;;-147.20;100.00;58430.41;5114447;28;20079;-52
2021/07/26 07:26:31;;;;;;;2.88;2.67;;;27.80;46.40;;;-147.20;100.00;58430.41;5114333;28;20047;-49
2021/07/26 07:28:57;;;;;;;2.45;2.25;;;27.90;46.30;;;-147.20;100.00;58430.41;5114007;28;20139;-50
2021/07/26 07:31:26;;;;;;;2.65;2.45;;;28.00;46.20;;;-147.20;100.00;58430.41;5113855;28;20043;-50
2021/07/26 07:33:57;;;;;;;2.60;2.40;;;28.00;45.90;;;-147.20;100.00;58430.41;5114222;28;20046;-50
2021/07/26 07:36:25;;;;;;;2.58;2.38;;;28.10;45.80;;;-147.20;100.00;58430.41;5114069;28;20120;-47
2021/07/26 07:38:52;;;;;;;2.60;2.40;;;28.10;45.80;;;-147.20;100.00;58430.41;5095339;28;20047;-50
2021/07/26 07:41:19;;;;;;;2.70;2.50;;;28.20;45.80;;;-147.20;100.00;58430.41;5113792;28;20047;-47
2021/07/26 07:43:45;;;;;;;2.60;2.40;;;28.20;45.70;;;-147.20;100.00;58430.41;5113769;28;20048;-48
2021/07/26 07:46:11;;;;;;;2.45;2.25;;;28.10;45.70;;;-147.20;100.00;58430.41;5095153;28;20056;-47
2021/07/26 07:48:38;;;;;;;2.45;2.25;;;28.10;45.80;;;-147.20;100.00;58430.41;5113773;28;20138;-47
2021/07/26 07:51:08;;;;;;;2.50;2.30;;;28.10;45.80;;;-147.20;100.00;58430.41;5113955;28;20039;-48
2021/07/26 07:53:35;;;;;;;2.40;2.20;;;28.00;45.80;;;-147.20;100.00;58430.41;5113685;28;20056;-48
2021/07/26 07:56:01;;;;;;;2.58;2.38;;;28.10;45.90;;;-147.20;100.00;58430.41;5113431;28;20126;-48
2021/07/26 07:58:27;;;;;;;2.42;2.22;;;28.00;45.80;;;-147.20;100.00;58430.41;5112982;28;20051;-53
2021/07/26 08:00:58;;;;;;;2.58;2.38;;;28.00;45.90;;;-147.20;100.00;58430.41;5113853;28;20039;-51
2021/07/26 08:03:26;;;;;;;2.67;2.08;;;28.00;45.90;;;-147.20;100.00;58430.41;5113381;28;20391;-52
2021/07/26 08:05:52;;;;;;;2.60;2.40;;;28.00;45.90;;;-147.20;100.00;58430.41;5113270;28;20047;-48
2021/07/26 08:08:17;;;;;;;2.53;2.33;;;28.00;46.00;;;-147.20;100.00;58430.41;5113025;28;20063;-52
2021/07/26 08:10:44;;;;;;;2.60;2.40;;;28.00;45.90;;;-147.20;100.00;58430.41;5113833;28;20048;-49
2021/07/26 08:13:10;;;;;;;2.67;2.42;;;28.00;45.90;;;-147.20;100.00;58430.41;5113366;28;20105;-53
2021/07/26 08:15:36;;;;;;;2.85;2.47;;;28.00;45.90;;;-147.20;100.00;58430.41;5112214;28;20093;-50
2021/07/26 08:18:02;;;;;;;2.30;2.10;;;28.00;45.90;;;-147.20;100.00;58430.41;5113338;28;20047;-49
2021/07/26 08:20:29;;;;;;;2.53;2.33;;;28.10;45.90;;;-147.20;100.00;58430.41;5113572;28;20147;-52
2021/07/26 08:22:55;;;;;;;2.28;2.08;;;28.00;45.80;;;-147.20;100.00;58430.41;5113092;28;20047;-51
2021/07/26 08:25:20;;;;;;;2.38;2.17;;;28.10;45.80;;;-147.20;100.00;58430.41;5113095;28;20047;-49
2021/07/26 08:27:55;;;;;;;2.47;2.28;;;28.00;45.70;;;-147.20;100.00;58430.41;5113142;28;20047;-50
2021/07/26 08:30:30;;;;;;;2.85;2.63;;;28.10;45.80;;;-147.20;100.00;58430.41;5094757;28;20054;-50
2021/07/26 08:32:56;;;;;;;2.78;2.58;;;28.10;45.70;;;-147.20;100.00;58430.41;5095193;28;20130;-51
2021/07/26 08:35:22;;;;;;;2.65;2.45;;;28.10;45.80;;;-147.20;100.00;58430.41;5113034;28;20035;-51
2021/07/26 08:37:49;;;;;;;2.28;2.08;;;28.10;45.80;;;-147.20;100.00;58430.41;5112944;28;20035;-51
2021/07/26 08:40:18;;;;;;;2.30;2.13;;;28.10;45.80;;;-147.20;100.00;58430.41;5112848;28;20052;-50
2021/07/26 08:42:44;;;;;;;2.60;2.40;;;28.10;45.80;;;-147.20;100.00;58430.41;5112961;28;20399;-48
2021/07/26 08:45:10;;;;;;;2.03;1.92;;;28.10;45.80;;;-147.20;100.00;58430.41;5112895;28;20051;-53
2021/07/26 08:47:45;;;;;;;2.47;2.28;;;28.10;45.70;;;-147.20;100.00;58430.41;5112809;28;20047;-53
2021/07/26 08:50:17;;;;;;;2.72;2.47;;;28.10;45.70;;;-147.20;100.00;58430.41;5113105;28;20040;-53
2021/07/26 08:52:47;;;;;;;2.88;2.67;;;28.10;45.60;;;-147.20;100.00;58430.41;5113443;28;20070;-48
2021/07/26 08:55:15;;;;;;;2.47;2.28;;;28.10;45.60;;;-147.20;100.00;58430.41;5112838;28;20051;-49
2021/07/26 08:57:44;;;;;;;2.47;2.28;;;28.10;45.50;;;-147.20;100.00;58430.41;5112521;28;20047;-47
2021/07/26 09:00:12;;;;;;;2.78;2.58;;;28.20;45.60;;;-147.20;100.00;58430.41;5112611;28;20052;-49
2021/07/26 09:02:38;;;;;;;2.30;2.10;;;28.20;45.50;;;-147.20;100.00;58430.41;5112953;28;20051;-50
2021/07/26 09:05:07;;;;;;;2.63;2.40;;;28.20;45.50;;;-147.20;100.00;58430.41;5112698;28;20059;-53
2021/07/26 09:07:40;;;;;;;2.35;2.05;;;28.20;45.50;;;-147.20;100.00;58430.41;5112445;28;20039;-48
2021/07/26 09:10:14;;;;;;;2.38;2.17;;;28.20;45.50;;;-147.20;100.00;58430.41;5112659;28;20052;-49
2021/07/26 09:12:42;;;;;;;2.40;2.20;;;28.20;45.40;;;-147.20;100.00;58430.41;5112961;28;20414;-53
2021/07/26 09:15:23;;;;;;;2.47;2.28;;;28.20;45.40;;;-147.20;100.00;58430.41;5112432;28;20054;-48
2021/07/26 09:17:49;;;;;;;;;;;28.20;45.40;;;-147.20;100.00;58430.41;5111729;28;20048;-51
2021/07/26 09:20:16;;;;;;;2.38;2.17;;;28.20;45.50;;;-147.20;100.00;58430.41;5112240;28;19915;-54
2021/07/26 09:22:43;;;;;;;2.47;2.28;;;28.20;45.50;;;-147.20;100.00;58430.41;5112469;28;20050;-54
2021/07/26 09:25:27;;;;;;;2.28;2.00;;;28.10;45.40;;;-147.20;100.00;58430.41;5112399;28;20059;-53
2021/07/26 09:28:09;;;;;;;2.67;2.47;;;28.20;45.60;;;-147.20;100.00;58430.41;5114520;28;20088;-49
2021/07/26 09:30:55;;;;;;;2.58;2.38;;;28.10;45.60;;;-147.20;100.00;58430.41;5112876;28;20040;-48
2021/07/26 09:33:23;;;;;;;2.80;2.40;;;28.10;45.60;;;-147.20;100.00;58430.41;5115625;28;20058;-54
2021/07/26 09:36:09;;;;;;;2.50;2.30;;;28.10;45.60;;;-147.20;100.00;58430.41;5115829;28;20556;-51
2021/07/26 09:38:36;;;;;;;2.70;2.50;;;28.10;45.60;;;-147.20;100.00;58430.41;5115452;28;20079;-54
2021/07/26 09:41:04;;;;;;;2.50;2.30;;;28.10;45.60;;;-147.20;100.00;58430.41;5115673;28;20491;-53
2021/07/26 09:43:30;;;;;;;2.35;2.05;;;28.10;45.60;;;-147.20;100.00;58430.41;5115406;28;20090;-52
2021/07/26 09:45:56;;;;;;;2.70;2.50;;;28.10;45.60;;;-147.20;100.00;58430.41;5115725;28;20076;-49
2021/07/26 09:48:26;;;;;;;2.50;2.30;;;28.10;45.60;;;-147.20;100.00;58430.41;5097457;28;20079;-51
2021/07/26 09:50:53;;;;;;;2.65;2.35;;;28.10;45.70;;;-147.20;100.00;58430.41;5115625;28;20071;-58
2021/07/26 09:53:24;;;;;;;3.10;2.85;;;28.10;45.70;;;-147.20;100.00;58430.41;5115861;28;20040;-53
2021/07/26 09:55:55;;;;;;;2.70;2.50;;;28.00;45.70;;;-147.20;100.00;58430.41;5097577;28;20048;-52
2021/07/26 09:58:38;;;;;;;2.53;2.33;;;28.00;45.70;;;-147.20;100.00;58430.41;5115491;28;20464;-57
2021/07/26 10:01:08;;;;;;;2.63;2.42;;;28.00;45.80;;;-147.20;100.00;58430.41;5115698;28;20059;-49
2021/07/26 10:03:36;;;;;;;2.33;2.13;;;27.90;45.70;;;-147.20;100.00;58430.41;5115518;28;20138;-53
2021/07/26 10:06:01;;;;;;;2.35;2.15;;;28.00;45.90;;;-147.20;100.00;58430.41;5115368;28;20077;-51